Time;durP1;ratioP1;P1;durP2;ratioP2;P2;SDS_P1;SDS_P2;PMS_P1;PMS_P2;Temp;Humidity;BMP_temperature;BMP_pressure;BME280_temperature;BME280_humidity;BME280_pressure;Samples;Min_cycle;Max_cycle;Signal;HPM_P1;HPM_P2
2021/03/14 00:00:29;;;;;;;26.80;2.83;;;6.40;84.40;;;;;;5017954;28;20061;-55
2021/03/14 00:02:56;;;;;;;13.20;2.83;;;6.40;84.40;;;;;;5027235;28;20432;-56
2021/03/14 00:05:23;;;;;;;17.42;2.88;;;6.40;84.90;;;;;;5005436;28;20049;-56
2021/03/14 00:07:48;;;;;;;17.77;2.97;;;6.40;85.00;;;;;;5027191;28;20044;-55
2021/03/14 00:10:14;;;;;;;14.43;2.17;;;6.40;85.50;;;;;;5034163;28;20037;-55
2021/03/14 00:12:40;;;;;;;14.70;2.20;;;6.30;84.70;;;;;;5019912;28;20047;-55
2021/03/14 00:15:08;;;;;;;18.98;2.83;;;6.30;84.90;;;;;;5014051;28;20055;-55
2021/03/14 00:17:35;;;;;;;14.10;2.50;;;6.30;84.70;;;;;;5010243;28;20398;-55
2021/03/14 00:20:01;;;;;;;16.92;2.42;;;6.20;85.00;;;;;;5018791;28;20113;-55
2021/03/14 00:22:27;;;;;;;13.05;2.50;;;6.20;85.00;;;;;;5011486;28;20091;-55
2021/03/14 00:24:52;;;;;;;15.68;2.97;;;6.20;85.20;;;;;;5031262;28;20462;-55
2021/03/14 00:27:18;;;;;;;21.20;2.70;;;6.10;85.30;;;;;;5029011;28;20040;-54
2021/03/14 00:29:44;;;;;;;25.20;4.13;;;6.10;85.40;;;;;;5023599;28;20044;-55
2021/03/14 00:32:09;;;;;;;18.90;2.80;;;6.10;85.50;;;;;;5030720;28;20040;-55
2021/03/14 00:34:35;;;;;;;14.80;2.17;;;6.10;85.50;;;;;;5028421;28;20096;-55
2021/03/14 00:37:01;;;;;;;14.85;2.58;;;6.00;85.80;;;;;;5026381;28;20091;-55
2021/03/14 00:39:26;;;;;;;18.45;2.70;;;6.00;86.00;;;;;;5027321;28;20033;-54
2021/03/14 00:41:52;;;;;;;15.57;2.33;;;6.00;86.20;;;;;;5023557;28;20037;-55
2021/03/14 00:44:18;;;;;;;12.48;2.50;;;6.00;86.30;;;;;;5012033;28;20103;-55
2021/03/14 00:46:44;;;;;;;15.68;2.72;;;5.90;86.40;;;;;;5021597;28;20691;-55
2021/03/14 00:49:20;;;;;;;18.20;3.15;;;5.90;86.60;;;;;;5031124;28;20120;-55
2021/03/14 00:51:46;;;;;;;16.73;2.88;;;5.80;86.80;;;;;;5019002;28;20091;-56
2021/03/14 00:54:11;;;;;;;21.92;2.70;;;5.90;86.90;;;;;;5031351;28;20046;-55
2021/03/14 00:56:37;;;;;;;13.75;2.85;;;5.80;86.90;;;;;;5024776;28;20254;-55
2021/03/14 00:59:03;;;;;;;16.17;3.47;;;5.90;87.00;;;;;;5003719;28;20061;-55
2021/03/14 01:01:29;;;;;;;19.95;3.08;;;5.80;87.10;;;;;;5018581;28;20041;-55
2021/03/14 01:03:55;;;;;;;18.98;2.90;;;5.80;87.30;;;;;;5020415;28;20049;-55
2021/03/14 01:06:21;;;;;;;19.88;3.05;;;5.80;87.40;;;;;;5020672;28;20098;-55
2021/03/14 01:08:48;;;;;;;13.88;3.25;;;5.90;87.50;;;;;;5021674;28;20171;-56
2021/03/14 01:11:14;;;;;;;16.60;2.78;;;5.90;87.50;;;;;;5029727;28;20045;-55
2021/03/14 01:13:39;;;;;;;18.95;3.00;;;5.90;87.60;;;;;;5016660;28;20049;-55
2021/03/14 01:16:06;;;;;;;14.13;2.72;;;5.90;87.60;;;;;;5028039;28;20072;-55
2021/03/14 01:18:31;;;;;;;20.08;3.35;;;5.80;87.80;;;;;;5026540;28;20034;-56
2021/03/14 01:20:57;;;;;;;20.80;3.10;;;5.90;87.90;;;;;;5025301;28;20064;-55
2021/03/14 01:23:23;;;;;;;18.48;3.15;;;5.90;87.90;;;;;;5017958;28;20037;-55
2021/03/14 01:25:48;;;;;;;21.23;2.90;;;5.80;88.00;;;;;;5029535;28;20101;-56
2021/03/14 01:28:14;;;;;;;22.75;2.95;;;5.90;88.00;;;;;;5029235;28;20046;-55
2021/03/14 01:30:40;;;;;;;14.40;2.70;;;5.80;88.10;;;;;;5030636;28;20084;-56
2021/03/14 01:33:06;;;;;;;24.60;3.75;;;5.80;88.20;;;;;;5023921;28;20037;-55
2021/03/14 01:35:31;;;;;;;17.40;2.90;;;5.80;88.20;;;;;;5028391;28;20148;-53
2021/03/14 01:37:57;;;;;;;18.90;2.90;;;5.80;88.30;;;;;;5029904;28;20495;-52
2021/03/14 01:40:23;;;;;;;21.75;3.25;;;5.80;88.20;;;;;;5033903;28;20095;-54
2021/03/14 01:42:49;;;;;;;23.10;3.28;;;5.80;88.30;;;;;;5029647;28;20072;-55
2021/03/14 01:45:16;;;;;;;19.58;3.50;;;5.80;88.20;;;;;;5026094;28;20041;-54
2021/03/14 01:47:44;;;;;;;21.50;2.85;;;5.80;88.30;;;;;;5023416;28;20036;-53
2021/03/14 01:50:13;;;;;;;23.23;3.42;;;5.80;88.30;;;;;;4988451;28;20049;-56
2021/03/14 01:52:38;;;;;;;19.55;3.20;;;5.80;88.40;;;;;;5009826;28;20041;-53
2021/03/14 01:55:07;;;;;;;16.48;3.30;;;5.80;88.40;;;;;;5033223;28;20048;-55
2021/03/14 01:57:33;;;;;;;21.15;4.72;;;5.80;88.50;;;;;;5032092;28;20048;-55
2021/03/14 01:59:59;;;;;;;18.30;3.30;;;5.80;88.40;;;;;;5028956;28;20169;-54
2021/03/14 02:02:25;;;;;;;22.35;2.90;;;5.80;88.60;;;;;;5030827;28;20524;-55
2021/03/14 02:04:51;;;;;;;17.33;3.58;;;5.70;88.60;;;;;;5032484;28;20053;-55
2021/03/14 02:07:17;;;;;;;21.55;3.30;;;5.80;88.50;;;;;;5032446;28;20052;-54
2021/03/14 02:09:43;;;;;;;16.92;3.00;;;5.80;88.50;;;;;;5033262;28;20482;-55
2021/03/14 02:12:15;;;;;;;17.02;3.38;;;5.70;88.40;;;;;;5030344;28;20209;-55
2021/03/14 02:14:41;;;;;;;24.65;3.75;;;5.80;88.50;;;;;;5032901;28;20041;-52
2021/03/14 02:17:12;;;;;;;17.67;3.33;;;5.70;88.30;;;;;;5026174;28;20041;-51
2021/03/14 02:19:41;;;;;;;25.10;3.47;;;5.70;88.50;;;;;;5025136;28;20069;-54
2021/03/14 02:22:07;;;;;;;21.58;3.60;;;5.80;88.60;;;;;;5030061;28;20438;-55
2021/03/14 02:24:48;;;;;;;17.38;3.50;;;5.70;88.40;;;;;;5030045;28;20103;-56
2021/03/14 02:27:15;;;;;;;19.05;4.18;;;5.70;88.40;;;;;;5029944;28;20041;-56
2021/03/14 02:29:42;;;;;;;19.98;3.22;;;5.70;88.30;;;;;;5031515;28;20030;-55
2021/03/14 02:32:11;;;;;;;18.00;3.28;;;5.70;88.30;;;;;;5028250;28;20042;-56
2021/03/14 02:34:43;;;;;;;17.58;3.47;;;5.70;88.30;;;;;;5030349;28;20041;-56
2021/03/14 02:37:10;;;;;;;;;;;5.70;88.50;;;;;;5027694;28;20060;-56
2021/03/14 02:39:36;;;;;;;20.00;3.40;;;5.70;88.60;;;;;;5030791;28;20311;-56
2021/03/14 02:42:06;;;;;;;21.10;3.13;;;5.80;88.60;;;;;;5030897;28;20546;-56
2021/03/14 02:44:35;;;;;;;17.20;3.38;;;5.80;88.50;;;;;;5028482;28;20506;-56
2021/03/14 02:47:02;;;;;;;19.00;3.15;;;5.80;88.50;;;;;;5020414;28;20194;-55
2021/03/14 02:49:28;;;;;;;24.35;4.70;;;5.80;88.50;;;;;;5024515;28;20402;-56
2021/03/14 02:51:54;;;;;;;16.92;3.25;;;5.80;88.40;;;;;;5031989;28;20037;-55
2021/03/14 02:54:21;;;;;;;19.65;3.15;;;5.80;88.40;;;;;;5031668;28;20041;-56
2021/03/14 02:56:48;;;;;;;19.23;3.83;;;5.80;88.40;;;;;;5031049;28;20112;-56
2021/03/14 02:59:19;;;;;;;18.33;3.22;;;5.80;88.50;;;;;;5021521;28;20088;-56
2021/03/14 03:01:47;;;;;;;16.77;4.03;;;5.80;88.50;;;;;;5027925;28;20421;-54
2021/03/14 03:04:16;;;;;;;19.90;4.00;;;5.80;88.50;;;;;;5030541;28;20050;-56
2021/03/14 03:06:42;;;;;;;23.40;5.05;;;5.70;88.50;;;;;;5028509;28;20048;-56
2021/03/14 03:09:10;;;;;;;17.02;3.60;;;5.70;88.60;;;;;;5030640;28;20148;-56
2021/03/14 03:11:37;;;;;;;26.10;4.40;;;5.70;88.70;;;;;;5031032;28;20061;-56
2021/03/14 03:14:05;;;;;;;24.48;3.92;;;5.70;88.80;;;;;;5013751;28;20049;-57
2021/03/14 03:16:32;;;;;;;20.15;3.53;;;5.70;88.80;;;;;;5031748;28;20084;-57
2021/03/14 03:18:58;;;;;;;26.52;3.83;;;5.80;89.00;;;;;;5026201;28;20103;-57
2021/03/14 03:21:26;;;;;;;23.08;3.45;;;5.80;89.00;;;;;;5024361;28;20045;-57
2021/03/14 03:23:52;;;;;;;17.15;3.45;;;5.80;88.80;;;;;;5028792;28;20029;-56
2021/03/14 03:26:18;;;;;;;26.88;3.65;;;5.90;88.80;;;;;;5032913;28;20132;-55
2021/03/14 03:28:44;;;;;;;21.20;4.03;;;5.90;88.80;;;;;;5030881;28;20124;-57
2021/03/14 03:31:11;;;;;;;19.33;4.00;;;5.90;88.80;;;;;;5032181;28;20624;-56
2021/03/14 03:33:37;;;;;;;14.48;3.10;;;5.90;88.60;;;;;;5029412;28;20049;-56
2021/03/14 03:36:03;;;;;;;16.25;3.15;;;6.00;88.30;;;;;;5030154;28;20033;-55
2021/03/14 03:38:32;;;;;;;16.25;3.28;;;6.00;88.00;;;;;;5028885;28;20037;-57
2021/03/14 03:40:59;;;;;;;12.15;2.58;;;6.00;87.80;;;;;;5031565;28;20103;-57
2021/03/14 03:43:35;;;;;;;16.02;3.55;;;6.00;86.80;;;;;;5029459;28;20453;-57
2021/03/14 03:46:05;;;;;;;13.57;2.95;;;6.00;86.20;;;;;;5029077;28;20068;-57
2021/03/14 03:48:53;;;;;;;14.70;3.08;;;6.00;86.20;;;;;;5006245;28;20076;-56
2021/03/14 03:51:30;;;;;;;6.18;2.13;;;6.10;86.40;;;;;;5027902;28;20064;-57
2021/03/14 03:53:58;;;;;;;19.08;3.00;;;5.90;86.20;;;;;;5022017;28;20445;-57
2021/03/14 03:56:25;;;;;;;8.50;2.38;;;6.00;86.20;;;;;;5022929;28;20049;-56
2021/03/14 03:58:52;;;;;;;12.40;2.30;;;6.00;85.40;;;;;;5032277;28;20047;-56
2021/03/14 04:01:19;;;;;;;8.02;2.00;;;6.00;85.70;;;;;;5030699;28;20099;-56
2021/03/14 04:03:46;;;;;;;11.82;2.40;;;5.90;85.50;;;;;;5029552;28;20485;-56
2021/03/14 04:06:15;;;;;;;6.22;2.38;;;5.90;85.70;;;;;;5030317;28;20048;-56
2021/03/14 04:08:43;;;;;;;6.57;2.03;;;5.90;86.00;;;;;;5030507;28;20048;-57
2021/03/14 04:11:14;;;;;;;7.90;2.05;;;6.00;85.50;;;;;;5023332;28;20054;-57
2021/03/14 04:13:42;;;;;;;8.05;2.67;;;5.90;85.60;;;;;;5023816;28;20048;-56
2021/03/14 04:16:10;;;;;;;9.60;2.30;;;5.90;86.10;;;;;;5027482;28;20050;-56
2021/03/14 04:18:38;;;;;;;9.80;2.25;;;5.90;86.10;;;;;;5020988;28;20410;-56
2021/03/14 04:21:07;;;;;;;10.13;2.53;;;5.90;86.00;;;;;;5032509;28;20134;-56
2021/03/14 04:23:33;;;;;;;11.25;2.30;;;5.90;86.80;;;;;;5029309;28;20041;-56
2021/03/14 04:25:59;;;;;;;11.60;2.13;;;5.90;86.50;;;;;;5029686;28;20037;-56
2021/03/14 04:28:31;;;;;;;15.02;2.92;;;5.90;86.70;;;;;;4996214;28;20049;-55
2021/03/14 04:30:59;;;;;;;9.27;2.42;;;5.80;87.10;;;;;;5030672;28;20047;-56
2021/03/14 04:33:27;;;;;;;12.93;2.50;;;5.80;87.30;;;;;;5029989;28;20045;-57
2021/03/14 04:35:57;;;;;;;13.63;2.55;;;5.80;87.60;;;;;;5030398;28;20474;-59
2021/03/14 04:38:26;;;;;;;12.88;2.78;;;5.80;87.90;;;;;;5030073;28;20041;-56
2021/03/14 04:40:53;;;;;;;10.65;2.53;;;5.80;88.30;;;;;;5030394;28;20041;-57
2021/03/14 04:43:21;;;;;;;10.57;2.85;;;5.80;88.40;;;;;;5012128;28;20061;-55
2021/03/14 04:45:48;;;;;;;12.77;3.20;;;5.70;88.60;;;;;;5030090;28;20033;-56
2021/03/14 04:48:17;;;;;;;11.60;2.70;;;5.70;88.80;;;;;;5028056;28;20037;-56
2021/03/14 04:50:43;;;;;;;13.27;2.90;;;5.70;88.90;;;;;;5030507;28;20371;-56
2021/03/14 04:53:10;;;;;;;15.55;2.88;;;5.80;89.10;;;;;;5011332;28;20156;-56
2021/03/14 04:55:37;;;;;;;16.20;2.95;;;5.80;89.10;;;;;;5030274;28;20144;-57
2021/03/14 04:58:05;;;;;;;12.63;2.55;;;5.80;89.20;;;;;;5032771;28;20044;-56
2021/03/14 05:00:31;;;;;;;9.98;2.60;;;5.80;89.30;;;;;;5026029;28;20038;-57
2021/03/14 05:02:58;;;;;;;12.68;2.65;;;5.80;89.40;;;;;;5024571;28;20057;-57
2021/03/14 05:05:25;;;;;;;12.32;3.30;;;5.80;89.40;;;;;;5029509;28;20034;-55
2021/03/14 05:07:52;;;;;;;13.68;2.78;;;5.70;89.30;;;;;;5029717;28;20053;-57
2021/03/14 05:10:21;;;;;;;8.15;2.53;;;5.80;89.00;;;;;;5032121;28;20122;-56
2021/03/14 05:12:48;;;;;;;10.65;2.33;;;5.70;88.80;;;;;;5016698;28;20069;-57
2021/03/14 05:15:16;;;;;;;10.77;2.28;;;5.70;88.70;;;;;;5027138;28;20091;-56
2021/03/14 05:17:43;;;;;;;12.52;2.42;;;5.70;88.70;;;;;;5032807;28;20039;-57
2021/03/14 05:20:13;;;;;;;9.57;2.38;;;5.70;88.20;;;;;;5012213;28;20038;-56
2021/03/14 05:22:41;;;;;;;10.45;2.10;;;5.70;88.10;;;;;;5024253;28;20041;-57
2021/03/14 05:25:08;;;;;;;9.93;2.10;;;5.70;87.70;;;;;;5030062;28;20042;-55
2021/03/14 05:27:36;;;;;;;9.48;2.30;;;5.60;87.70;;;;;;5028926;28;20037;-54
2021/03/14 05:30:06;;;;;;;11.88;2.10;;;5.60;87.80;;;;;;5016166;28;20038;-53
2021/03/14 05:32:32;;;;;;;9.57;2.25;;;5.60;87.80;;;;;;5032466;28;20048;-55
2021/03/14 05:34:57;;;;;;;9.43;2.33;;;5.50;87.70;;;;;;5020931;28;20037;-55
2021/03/14 05:37:23;;;;;;;7.85;2.00;;;5.50;88.10;;;;;;5032112;28;20030;-54
2021/03/14 05:39:50;;;;;;;9.50;2.47;;;5.40;88.10;;;;;;5033752;28;20037;-54
2021/03/14 05:42:17;;;;;;;7.38;2.20;;;5.50;88.10;;;;;;5015771;28;20041;-55
2021/03/14 05:44:46;;;;;;;8.13;2.28;;;5.40;88.10;;;;;;5015140;28;20114;-53
2021/03/14 05:47:12;;;;;;;7.63;1.90;;;5.40;88.10;;;;;;5026898;28;20060;-55
2021/03/14 05:49:38;;;;;;;8.13;2.13;;;5.40;88.10;;;;;;5033203;28;20076;-55
2021/03/14 05:52:05;;;;;;;8.52;2.00;;;5.40;87.80;;;;;;5030714;28;20060;-56
2021/03/14 05:54:33;;;;;;;4.55;1.88;;;5.40;88.00;;;;;;5033135;28;20045;-55
2021/03/14 05:57:02;;;;;;;6.82;1.85;;;5.40;88.10;;;;;;5011715;28;20103;-56
2021/03/14 05:59:29;;;;;;;7.07;2.22;;;5.40;88.20;;;;;;5033550;28;20045;-55
2021/03/14 06:01:56;;;;;;;3.75;1.98;;;5.40;88.20;;;;;;5030994;28;20500;-55
2021/03/14 06:04:22;;;;;;;7.78;1.73;;;5.40;88.00;;;;;;5032978;28;20037;-55
2021/03/14 06:06:48;;;;;;;5.18;1.50;;;5.40;87.80;;;;;;5030897;28;20095;-57
2021/03/14 06:09:15;;;;;;;4.25;1.30;;;5.30;87.70;;;;;;5032398;28;20128;-56
2021/03/14 06:11:41;;;;;;;4.45;1.50;;;5.40;87.50;;;;;;5031991;28;20044;-55
2021/03/14 06:14:07;;;;;;;7.85;1.77;;;5.30;87.40;;;;;;5039341;28;20034;-55
2021/03/14 06:16:33;;;;;;;4.45;1.30;;;5.30;87.40;;;;;;5026123;28;20046;-56
2021/03/14 06:19:00;;;;;;;5.82;1.30;;;5.20;87.60;;;;;;5031570;28;20042;-55
2021/03/14 06:21:28;;;;;;;5.22;1.33;;;5.20;87.80;;;;;;5032236;28;20486;-56
2021/03/14 06:24:03;;;;;;;5.50;1.40;;;5.20;88.00;;;;;;5031464;28;20461;-55
2021/03/14 06:26:37;;;;;;;5.05;1.38;;;5.10;87.90;;;;;;5021324;28;20152;-55
2021/03/14 06:29:18;;;;;;;5.07;1.48;;;5.10;88.20;;;;;;5014736;28;20124;-55
2021/03/14 06:31:45;;;;;;;3.30;1.15;;;5.10;88.20;;;;;;5032657;28;20557;-54
2021/03/14 06:34:25;;;;;;;4.80;1.40;;;5.10;88.20;;;;;;5032505;28;20437;-55
2021/03/14 06:36:52;;;;;;;4.65;1.48;;;5.10;88.20;;;;;;5031031;28;20037;-55
2021/03/14 06:39:27;;;;;;;5.35;1.30;;;5.10;88.30;;;;;;5030394;28;20068;-55
2021/03/14 06:41:54;;;;;;;4.55;1.45;;;5.20;88.40;;;;;;5029084;28;20037;-55
2021/03/14 06:44:22;;;;;;;3.05;1.30;;;5.20;88.40;;;;;;5027365;28;20038;-54
2021/03/14 06:46:48;;;;;;;6.95;1.88;;;5.30;88.60;;;;;;5003610;28;20041;-55
2021/03/14 06:49:21;;;;;;;3.92;1.27;;;5.30;88.50;;;;;;5025713;28;20049;-55
2021/03/14 06:51:50;;;;;;;7.68;1.42;;;5.30;88.50;;;;;;5020563;28;20041;-55
2021/03/14 06:54:20;;;;;;;5.60;1.92;;;5.40;88.60;;;;;;5025624;28;20050;-55
2021/03/14 06:57:09;;;;;;;3.30;1.35;;;5.40;88.50;;;;;;5022669;28;20049;-55
2021/03/14 06:59:37;;;;;;;3.08;1.33;;;5.50;88.50;;;;;;5030514;28;20037;-55
2021/03/14 07:02:11;;;;;;;2.67;1.30;;;5.50;88.50;;;;;;5011022;28;20128;-54
2021/03/14 07:04:44;;;;;;;8.35;1.50;;;5.50;88.60;;;;;;5025588;28;20045;-55
2021/03/14 07:07:14;;;;;;;;;;;5.50;88.70;;;;;;5025025;28;20453;-55
2021/03/14 07:09:41;;;;;;;6.25;1.63;;;5.50;88.90;;;;;;5029348;28;19940;-55
2021/03/14 07:12:21;;;;;;;6.35;1.67;;;5.50;88.70;;;;;;5024385;28;20038;-55
2021/03/14 07:14:48;;;;;;;5.70;1.65;;;5.50;88.80;;;;;;5021854;28;20140;-55
2021/03/14 07:17:26;;;;;;;5.55;1.80;;;5.60;88.90;;;;;;5008428;28;20030;-55
2021/03/14 07:19:57;;;;;;;4.40;1.65;;;5.60;88.70;;;;;;5010756;28;20045;-55
2021/03/14 07:22:23;;;;;;;8.50;1.70;;;5.60;88.70;;;;;;5026040;28;20060;-55
2021/03/14 07:24:49;;;;;;;7.70;1.70;;;5.60;88.80;;;;;;5011846;28;20199;-54
2021/03/14 07:27:29;;;;;;;6.78;1.70;;;5.70;88.90;;;;;;5024105;28;20548;-54
2021/03/14 07:29:56;;;;;;;6.72;1.98;;;5.70;89.20;;;;;;5025988;28;20034;-54
2021/03/14 07:32:23;;;;;;;9.13;2.10;;;5.80;89.00;;;;;;5004310;28;20096;-56
2021/03/14 07:34:49;;;;;;;13.00;1.95;;;5.90;88.90;;;;;;5025026;28;20038;-54
2021/03/14 07:37:16;;;;;;;9.57;2.20;;;5.90;88.70;;;;;;5025938;28;20038;-55
2021/03/14 07:39:46;;;;;;;10.10;2.40;;;6.00;88.30;;;;;;5020629;28;20449;-55
2021/03/14 07:42:12;;;;;;;7.07;1.80;;;6.00;88.30;;;;;;5025291;28;20041;-55
2021/03/14 07:44:38;;;;;;;8.27;2.20;;;5.90;88.40;;;;;;5026196;28;20056;-54
2021/03/14 07:47:04;;;;;;;9.07;2.10;;;6.00;88.70;;;;;;5025037;28;20042;-55
2021/03/14 07:49:30;;;;;;;10.00;2.10;;;6.10;88.90;;;;;;5027351;28;20049;-54
2021/03/14 07:52:06;;;;;;;5.20;1.90;;;6.20;88.50;;;;;;5030874;28;20068;-54
2021/03/14 07:54:39;;;;;;;9.43;2.03;;;6.40;88.10;;;;;;5028168;28;20113;-55
2021/03/14 07:57:06;;;;;;;6.90;2.00;;;6.40;87.90;;;;;;5000909;28;20041;-55
2021/03/14 07:59:33;;;;;;;11.63;2.40;;;6.50;87.90;;;;;;5026807;28;20112;-54
2021/03/14 08:02:16;;;;;;;9.07;2.55;;;6.60;87.70;;;;;;5027304;28;20417;-54
2021/03/14 08:04:46;;;;;;;14.95;3.17;;;6.60;87.60;;;;;;5026865;28;20129;-54
2021/03/14 08:07:12;;;;;;;12.55;2.60;;;6.70;87.60;;;;;;5028606;28;20061;-55
2021/03/14 08:09:43;;;;;;;19.20;2.97;;;6.70;87.60;;;;;;5020912;28;20041;-55
2021/03/14 08:12:26;;;;;;;16.20;3.65;;;6.80;87.70;;;;;;5030207;28;20569;-56
2021/03/14 08:14:54;;;;;;;18.33;3.60;;;6.80;87.60;;;;;;5027235;28;20041;-56
2021/03/14 08:17:22;;;;;;;13.88;3.50;;;6.80;87.80;;;;;;5017318;28;20040;-54
2021/03/14 08:19:50;;;;;;;14.85;3.35;;;6.90;87.70;;;;;;5039010;28;20046;-55
2021/03/14 08:22:38;;;;;;;14.70;3.60;;;7.00;87.70;;;;;;5026634;28;20037;-56
2021/03/14 08:25:26;;;;;;;9.70;3.38;;;7.00;87.60;;;;;;5018852;28;20045;-55
2021/03/14 08:27:57;;;;;;;16.23;3.53;;;7.10;87.40;;;;;;5021724;28;20125;-55
2021/03/14 08:30:32;;;;;;;10.70;3.05;;;7.10;87.50;;;;;;5024706;28;20389;-55
2021/03/14 08:33:25;;;;;;;18.95;3.80;;;7.10;87.50;;;;;;5037532;28;20033;-55
2021/03/14 08:35:56;;;;;;;16.48;3.53;;;7.20;87.80;;;;;;5035681;28;20041;-55
2021/03/14 08:38:28;;;;;;;21.30;4.97;;;7.10;87.50;;;;;;5023347;28;20565;-55
2021/03/14 08:41:22;;;;;;;14.13;4.13;;;7.10;87.50;;;;;;5011205;28;20042;-55
2021/03/14 08:43:51;;;;;;;18.70;4.40;;;7.10;87.80;;;;;;5011726;28;20093;-56
2021/03/14 08:46:17;;;;;;;14.52;4.32;;;7.10;87.90;;;;;;5014276;28;20036;-55
2021/03/14 08:48:43;;;;;;;22.13;4.63;;;7.20;87.80;;;;;;5031615;28;20116;-51
2021/03/14 08:51:10;;;;;;;21.45;4.35;;;7.30;87.60;;;;;;5031543;28;20092;-55
2021/03/14 08:53:37;;;;;;;19.25;4.65;;;7.30;87.60;;;;;;5031438;28;20400;-54
2021/03/14 08:56:05;;;;;;;18.85;4.88;;;7.30;87.30;;;;;;5023169;28;20037;-56
2021/03/14 08:58:32;;;;;;;20.77;4.68;;;7.50;87.70;;;;;;5016659;28;20056;-51
2021/03/14 09:01:10;;;;;;;19.88;3.78;;;7.70;87.90;;;;;;5030851;28;20053;-53
2021/03/14 09:03:43;;;;;;;19.08;3.80;;;7.90;87.10;;;;;;5030487;28;20068;-56
2021/03/14 09:06:28;;;;;;;15.13;4.22;;;7.90;86.00;;;;;;5030950;28;20045;-54
2021/03/14 09:09:02;;;;;;;17.02;4.40;;;7.90;85.70;;;;;;5019380;28;20037;-55
2021/03/14 09:11:48;;;;;;;15.23;4.20;;;7.80;85.70;;;;;;5030517;28;20457;-55
2021/03/14 09:14:24;;;;;;;25.73;3.80;;;7.70;86.00;;;;;;5027408;28;20046;-54
2021/03/14 09:17:07;;;;;;;16.13;4.50;;;7.70;86.70;;;;;;5016752;28;20084;-53
2021/03/14 09:19:40;;;;;;;17.88;4.18;;;7.70;86.70;;;;;;5018231;28;20046;-53
2021/03/14 09:22:33;;;;;;;16.10;3.78;;;7.60;86.80;;;;;;5022718;28;20116;-56
2021/03/14 09:25:00;;;;;;;14.93;3.80;;;7.30;86.20;;;;;;5032035;28;20132;-56
2021/03/14 09:27:31;;;;;;;19.40;4.07;;;7.60;86.90;;;;;;5022459;28;20046;-52
2021/03/14 09:29:58;;;;;;;19.48;4.20;;;7.60;87.20;;;;;;5022014;28;20085;-54
2021/03/14 09:32:32;;;;;;;16.48;3.38;;;7.70;87.20;;;;;;5017880;28;20080;-54
2021/03/14 09:35:25;;;;;;;15.32;3.40;;;7.80;85.70;;;;;;5030540;28;20045;-55
2021/03/14 09:37:51;;;;;;;15.82;3.13;;;7.90;84.00;;;;;;5026993;28;20049;-53
2021/03/14 09:40:21;;;;;;;14.85;3.40;;;8.00;85.50;;;;;;5011163;28;20038;-52
2021/03/14 09:42:50;;;;;;;15.15;3.17;;;8.10;85.10;;;;;;5024797;28;20073;-56
2021/03/14 09:45:19;;;;;;;11.80;3.05;;;8.20;83.80;;;;;;5019702;28;20041;-56
2021/03/14 09:48:07;;;;;;;21.92;3.47;;;8.20;83.80;;;;;;5029893;28;20042;-55
2021/03/14 09:50:37;;;;;;;15.10;2.97;;;8.20;83.90;;;;;;5020998;28;20192;-55
2021/03/14 09:53:05;;;;;;;12.48;3.40;;;8.30;84.10;;;;;;5025072;28;20122;-53
2021/03/14 09:55:39;;;;;;;14.48;3.20;;;8.30;83.90;;;;;;5012854;28;20042;-56
2021/03/14 09:58:09;;;;;;;14.27;3.28;;;8.20;82.50;;;;;;5016573;28;20342;-54
2021/03/14 10:00:35;;;;;;;14.05;3.67;;;8.20;82.10;;;;;;5034640;28;20131;-55
2021/03/14 10:03:04;;;;;;;15.50;3.25;;;8.10;83.00;;;;;;5023868;28;20500;-55
2021/03/14 10:05:49;;;;;;;16.70;3.53;;;8.10;83.50;;;;;;5022014;28;20130;-56
2021/03/14 10:08:20;;;;;;;14.13;3.00;;;8.00;84.20;;;;;;5031938;28;20037;-53
2021/03/14 10:10:48;;;;;;;11.85;3.10;;;7.90;84.10;;;;;;5021827;28;20068;-52
2021/03/14 10:13:15;;;;;;;10.93;2.67;;;7.80;84.50;;;;;;5038822;28;20055;-53
2021/03/14 10:15:41;;;;;;;15.60;3.13;;;7.90;85.20;;;;;;5030809;28;20042;-56
2021/03/14 10:18:08;;;;;;;8.05;2.95;;;7.90;85.20;;;;;;5027563;28;20285;-52
2021/03/14 10:20:35;;;;;;;17.95;2.80;;;7.90;85.10;;;;;;5029565;28;20460;-55
2021/03/14 10:23:07;;;;;;;13.13;3.38;;;8.00;84.80;;;;;;5033085;28;20045;-57
2021/03/14 10:25:35;;;;;;;12.68;3.08;;;8.00;84.50;;;;;;5015741;28;20080;-56
2021/03/14 10:28:17;;;;;;;12.20;2.15;;;8.00;83.30;;;;;;5019553;28;20056;-54
2021/03/14 10:30:46;;;;;;;11.00;2.10;;;7.90;84.10;;;;;;5033955;28;20053;-56
2021/03/14 10:33:16;;;;;;;8.25;2.00;;;7.80;84.20;;;;;;5040509;28;20046;-52
2021/03/14 10:35:43;;;;;;;9.52;2.20;;;7.70;84.60;;;;;;5023743;28;20092;-54
2021/03/14 10:38:18;;;;;;;11.50;2.25;;;7.80;84.60;;;;;;5019785;28;20365;-55
2021/03/14 10:40:45;;;;;;;9.07;2.83;;;7.90;85.10;;;;;;5033539;28;20513;-53
2021/03/14 10:43:22;;;;;;;13.35;2.30;;;8.20;84.20;;;;;;5032776;28;20033;-55
2021/03/14 10:45:50;;;;;;;6.80;2.00;;;8.40;83.40;;;;;;5032819;28;20053;-56
2021/03/14 10:48:15;;;;;;;12.20;2.67;;;8.60;83.30;;;;;;5032510;28;20092;-56
2021/03/14 10:50:42;;;;;;;16.55;2.75;;;8.80;82.90;;;;;;5032812;28;20045;-56
2021/03/14 10:53:13;;;;;;;12.27;2.63;;;8.90;81.30;;;;;;5032733;28;20118;-57
2021/03/14 10:55:40;;;;;;;11.50;2.40;;;8.90;81.10;;;;;;5032754;28;20049;-56
2021/03/14 10:58:10;;;;;;;11.02;2.38;;;8.80;80.70;;;;;;5031669;28;20045;-56
2021/03/14 11:00:38;;;;;;;10.30;2.33;;;8.80;81.50;;;;;;5033132;28;20041;-55
2021/03/14 11:03:12;;;;;;;18.55;2.60;;;8.70;80.70;;;;;;5032550;28;20045;-56
2021/03/14 11:05:40;;;;;;;10.70;2.22;;;8.60;81.20;;;;;;5015528;28;20115;-52
2021/03/14 11:08:06;;;;;;;6.00;1.48;;;8.40;81.80;;;;;;5031504;28;20045;-56
2021/03/14 11:10:32;;;;;;;7.22;1.35;;;8.30;80.30;;;;;;5032499;28;20051;-56
2021/03/14 11:12:57;;;;;;;5.68;1.58;;;8.10;79.90;;;;;;5028340;28;20037;-53
2021/03/14 11:15:26;;;;;;;6.68;1.65;;;7.90;81.00;;;;;;5007355;28;20402;-56
2021/03/14 11:17:53;;;;;;;9.52;1.83;;;7.80;82.50;;;;;;5040838;28;20041;-56
2021/03/14 11:20:20;;;;;;;10.13;1.77;;;7.80;83.40;;;;;;5028759;28;20128;-57
2021/03/14 11:22:51;;;;;;;18.65;3.28;;;7.80;84.40;;;;;;5012792;28;20037;-53
2021/03/14 11:25:18;;;;;;;8.93;1.75;;;7.90;84.40;;;;;;5028159;28;20037;-53
2021/03/14 11:27:44;;;;;;;7.47;1.90;;;7.90;84.30;;;;;;5027188;28;20038;-55
2021/03/14 11:30:11;;;;;;;8.07;2.03;;;7.90;84.00;;;;;;5014736;28;20498;-56
2021/03/14 11:32:36;;;;;;;8.73;1.80;;;7.90;84.10;;;;;;5046041;28;20037;-56
2021/03/14 11:35:03;;;;;;;9.93;1.80;;;7.90;83.20;;;;;;5032708;28;20060;-55
2021/03/14 11:37:28;;;;;;;10.57;1.80;;;7.60;83.50;;;;;;5031825;28;20060;-55
2021/03/14 11:39:54;;;;;;;12.52;2.25;;;7.50;85.00;;;;;;5030276;28;20042;-56
2021/03/14 11:42:20;;;;;;;13.95;2.83;;;7.40;86.60;;;;;;5025532;28;20042;-55
2021/03/14 11:44:46;;;;;;;9.48;2.25;;;7.50;88.40;;;;;;5030681;28;20041;-55
2021/03/14 11:47:11;;;;;;;8.82;2.58;;;7.70;89.00;;;;;;5013798;28;20038;-56
2021/03/14 11:49:37;;;;;;;7.30;2.78;;;7.90;89.60;;;;;;5014092;28;20049;-54
2021/03/14 11:52:03;;;;;;;9.43;2.35;;;8.00;88.70;;;;;;5031718;28;20597;-56
2021/03/14 11:54:29;;;;;;;13.82;2.85;;;8.10;88.50;;;;;;5031233;28;20049;-53
2021/03/14 11:56:55;;;;;;;13.02;2.47;;;8.20;88.10;;;;;;5030642;28;20530;-53
2021/03/14 11:59:20;;;;;;;5.57;1.92;;;8.20;87.30;;;;;;5032074;28;20068;-56
2021/03/14 12:01:49;;;;;;;9.13;1.63;;;8.20;86.70;;;;;;5031130;28;20511;-56
2021/03/14 12:04:14;;;;;;;10.57;2.22;;;8.20;87.30;;;;;;5030794;28;20041;-56
2021/03/14 12:06:40;;;;;;;8.27;2.05;;;8.20;85.90;;;;;;5029787;28;20036;-55
2021/03/14 12:09:06;;;;;;;6.53;1.75;;;8.10;85.10;;;;;;5024338;28;20588;-56
2021/03/14 12:11:34;;;;;;;7.30;1.70;;;8.10;86.30;;;;;;5023945;28;20046;-56
2021/03/14 12:14:00;;;;;;;12.55;1.75;;;8.20;86.70;;;;;;5029828;28;20882;-55
2021/03/14 12:16:26;;;;;;;11.88;2.55;;;8.30;86.50;;;;;;5031161;28;20041;-52
2021/03/14 12:18:52;;;;;;;7.97;2.10;;;8.40;86.80;;;;;;5012885;28;20509;-56
2021/03/14 12:21:17;;;;;;;15.27;2.10;;;8.60;86.80;;;;;;5022076;28;20042;-54
2021/03/14 12:23:43;;;;;;;7.97;2.55;;;8.60;85.10;;;;;;5026499;28;20056;-55
2021/03/14 12:26:09;;;;;;;11.43;1.92;;;8.60;83.30;;;;;;5026170;28;20045;-55
2021/03/14 12:28:34;;;;;;;10.50;2.53;;;8.50;83.50;;;;;;5030625;28;20045;-56
2021/03/14 12:31:01;;;;;;;10.68;1.92;;;8.50;82.70;;;;;;5029428;28;20456;-56
2021/03/14 12:33:27;;;;;;;12.60;3.05;;;8.50;81.30;;;;;;5030671;28;20037;-56
2021/03/14 12:35:53;;;;;;;11.77;1.88;;;8.50;82.00;;;;;;5016726;28;20042;-53
2021/03/14 12:38:20;;;;;;;12.93;2.17;;;8.40;82.30;;;;;;5026789;28;20037;-51
2021/03/14 12:40:46;;;;;;;14.93;3.60;;;8.40;83.10;;;;;;5017624;28;20064;-52
2021/03/14 12:43:16;;;;;;;7.97;1.90;;;8.30;83.90;;;;;;4995937;28;20045;-51
2021/03/14 12:45:43;;;;;;;11.80;2.60;;;8.50;83.70;;;;;;5029321;28;20069;-51
2021/03/14 12:48:09;;;;;;;9.05;2.00;;;8.80;84.60;;;;;;5016715;28;20038;-53
2021/03/14 12:50:35;;;;;;;9.70;2.03;;;9.00;80.80;;;;;;5023867;28;20416;-51
2021/03/14 12:53:01;;;;;;;7.50;1.40;;;9.20;77.50;;;;;;5030751;28;20049;-53
2021/03/14 12:55:27;;;;;;;11.70;1.58;;;9.20;76.70;;;;;;5030791;28;20041;-52
2021/03/14 12:57:53;;;;;;;7.68;1.30;;;9.20;78.90;;;;;;5017903;28;20066;-53